createdAt,value
2023-04-18T00:02:55.268Z,96.20
2023-04-18T00:06:58.903Z,96.30
2023-04-18T00:11:03.239Z,96.20
2023-04-18T00:15:09.630Z,96.30
2023-04-18T00:19:14.423Z,96.30
2023-04-18T00:23:17.681Z,96.10
2023-04-18T00:27:24.083Z,96.20
2023-04-18T00:31:28.772Z,96.60
2023-04-18T00:35:34.251Z,96.90
2023-04-18T00:39:38.714Z,97.30
2023-04-18T00:43:42.920Z,97.20
2023-04-18T00:47:46.109Z,97.10
2023-04-18T00:51:49.938Z,97.00
2023-04-18T00:55:52.838Z,96.80
2023-04-18T00:59:56.993Z,96.80
2023-04-18T01:03:59.925Z,96.70
2023-04-18T01:08:03.801Z,96.50
2023-04-18T01:12:07.614Z,96.40
2023-04-18T01:16:11.838Z,96.20
2023-04-18T01:24:32.596Z,96.10
2023-04-18T01:28:38.104Z,96.10
2023-04-18T01:32:41.312Z,96.10
2023-04-18T01:36:44.432Z,96.20
2023-04-18T01:40:49.049Z,96.20
2023-04-18T01:44:51.912Z,96.20
2023-04-18T01:48:54.666Z,96.50
2023-04-18T01:52:57.605Z,96.30
2023-04-18T01:57:01.682Z,96.50
2023-04-18T02:01:04.876Z,96.70
2023-04-18T02:05:08.715Z,96.80
2023-04-18T02:09:14.559Z,96.80
2023-04-18T02:13:20.400Z,97.00
2023-04-18T02:17:24.091Z,97.00
2023-04-18T02:21:26.945Z,97.00
2023-04-18T02:25:29.729Z,97.20
2023-04-18T02:29:33.915Z,97.20
2023-04-18T02:33:36.662Z,97.20
2023-04-18T02:37:39.557Z,97.30
2023-04-18T02:41:42.375Z,97.50
2023-04-18T02:45:46.503Z,97.70
2023-04-18T02:49:49.384Z,97.60
2023-04-18T02:53:55.006Z,97.90
2023-04-18T02:57:58.460Z,97.90
2023-04-18T03:02:21.195Z,98.00
2023-04-18T03:06:29.692Z,98.10
2023-04-18T03:10:33.487Z,98.20
2023-04-18T03:14:37.870Z,98.20
2023-04-18T03:18:42.755Z,98.30
2023-04-18T03:22:45.762Z,98.50
2023-04-18T03:26:50.362Z,98.70
2023-04-18T03:30:56.547Z,99.00
2023-04-18T03:35:01.006Z,99.00
2023-04-18T03:39:06.005Z,98.90
2023-04-18T03:43:10.796Z,98.70
2023-04-18T03:47:14.614Z,98.90
2023-04-18T03:51:22.180Z,99.10
2023-04-18T03:55:26.261Z,99.20
2023-04-18T03:59:29.183Z,99.40
2023-04-18T04:03:32.164Z,99.90
2023-04-18T04:07:36.510Z,99.40
2023-04-18T04:11:39.953Z,99.90
2023-04-18T04:15:46.275Z,99.90
2023-04-18T04:19:50.752Z,99.90
2023-04-18T04:23:56.979Z,99.90
2023-04-18T04:28:08.224Z,99.90
2023-04-18T04:32:21.562Z,99.90
2023-04-18T04:36:27.137Z,99.90
2023-04-18T04:40:34.518Z,99.90
2023-04-18T04:44:45.056Z,99.90
2023-04-18T04:48:49.626Z,99.90
2023-04-18T04:52:52.737Z,99.90
2023-04-18T04:56:57.488Z,99.90
2023-04-18T05:01:01.648Z,99.90
2023-04-18T05:05:04.839Z,99.90
2023-04-18T05:09:07.594Z,99.90
2023-04-18T05:13:11.665Z,99.90
2023-04-18T05:17:14.420Z,99.90
2023-04-18T05:21:17.252Z,99.90
2023-04-18T05:25:20.704Z,99.90
2023-04-18T05:29:24.811Z,99.90
2023-04-18T05:33:27.846Z,99.90
2023-04-18T05:37:30.598Z,99.90
2023-04-18T05:41:33.378Z,99.90
2023-04-18T05:45:37.520Z,99.90
2023-04-18T05:49:40.444Z,99.90
2023-04-18T05:53:43.234Z,99.90
2023-04-18T05:57:45.971Z,99.90
2023-04-18T06:01:50.273Z,99.90
2023-04-18T06:05:53.092Z,99.90
2023-04-18T06:09:56.283Z,99.90
2023-04-18T06:13:59.098Z,99.90
2023-04-18T06:18:03.363Z,99.90
2023-04-18T06:22:06.350Z,99.90
2023-04-18T06:26:09.175Z,99.90
2023-04-18T06:30:12.441Z,99.90
2023-04-18T06:34:16.612Z,99.90
2023-04-18T06:38:19.373Z,99.90
2023-04-18T06:42:22.829Z,99.90
2023-04-18T06:46:25.942Z,99.90
2023-04-18T06:50:30.127Z,99.90
2023-04-18T06:54:32.932Z,99.90
2023-04-18T06:58:35.667Z,99.90
2023-04-18T07:02:39.907Z,99.90
2023-04-18T07:06:44.414Z,99.90
2023-04-18T07:10:47.193Z,99.90
2023-04-18T07:14:49.985Z,99.90
2023-04-18T07:18:52.770Z,99.90
2023-04-18T07:22:56.839Z,99.90
2023-04-18T07:26:59.770Z,99.90
2023-04-18T07:31:03.026Z,99.90
2023-04-18T07:35:06.690Z,99.90
2023-04-18T07:39:11.536Z,99.90
2023-04-18T07:43:14.358Z,99.90
2023-04-18T07:47:22.195Z,99.90
2023-04-18T07:51:31.062Z,99.90
2023-04-18T07:55:35.137Z,99.90
2023-04-18T07:59:37.918Z,99.90
2023-04-18T08:03:40.811Z,99.90
2023-04-18T08:07:43.689Z,99.90
2023-04-18T08:11:47.890Z,99.90
2023-04-18T08:15:50.798Z,99.90
2023-04-18T08:19:53.581Z,99.90
2023-04-18T08:23:56.947Z,99.80
2023-04-18T08:28:01.381Z,99.80
2023-04-18T08:32:07.221Z,99.60
2023-04-18T08:36:11.935Z,99.60
2023-04-18T08:40:14.961Z,99.40
2023-04-18T08:44:21.474Z,99.30
2023-04-18T08:48:24.219Z,98.80
2023-04-18T08:52:29.504Z,98.90
2023-04-18T08:56:32.429Z,98.80
2023-04-18T09:00:36.546Z,98.70
2023-04-18T09:04:40.817Z,98.90
2023-04-18T09:08:44.439Z,98.70
2023-04-18T09:12:50.824Z,98.60
2023-04-18T09:16:56.011Z,98.60
2023-04-18T09:21:18.504Z,98.50
2023-04-18T09:25:34.456Z,98.70
2023-04-18T09:29:46.494Z,98.70
2023-04-18T09:33:56.704Z,98.20
2023-04-18T09:37:59.512Z,98.30
2023-04-18T09:42:02.428Z,97.90
2023-04-18T09:46:06.133Z,97.20
2023-04-18T09:50:11.716Z,96.60
2023-04-18T09:54:17.002Z,96.40
2023-04-18T09:58:23.121Z,96.40
2023-04-18T10:02:29.708Z,96.10
2023-04-18T10:06:35.080Z,95.10
2023-04-18T10:10:39.051Z,94.80
2023-04-18T10:14:43.993Z,94.40
2023-04-18T10:18:47.098Z,93.80
2023-04-18T10:22:52.444Z,93.70
2023-04-18T10:26:55.200Z,93.70
2023-04-18T10:31:04.145Z,93.40
2023-04-18T10:35:08.072Z,93.70
2023-04-18T10:39:23.381Z,93.40
2023-04-18T10:43:27.218Z,92.70
2023-04-18T10:47:30.241Z,91.40
2023-04-18T10:51:33.165Z,91.10
2023-04-18T10:55:37.808Z,91.40
2023-04-18T10:59:43.849Z,89.40
2023-04-18T11:03:47.363Z,87.10
2023-04-18T11:07:50.296Z,85.50
2023-04-18T11:12:06.517Z,85.40
2023-04-18T11:16:09.930Z,85.50
2023-04-18T11:20:14.851Z,84.10
2023-04-18T11:24:24.507Z,84.00
2023-04-18T11:28:28.694Z,85.80
2023-04-18T11:32:31.527Z,85.70
2023-04-18T11:36:37.886Z,86.20
2023-04-18T11:40:47.759Z,86.30
2023-04-18T11:44:51.834Z,86.00
2023-04-18T11:48:54.828Z,87.50
2023-04-18T11:52:57.626Z,87.80
2023-04-18T11:57:00.529Z,85.60
2023-04-18T12:01:18.687Z,82.30
2023-04-18T12:05:29.100Z,84.40
2023-04-18T12:09:32.012Z,84.30
2023-04-18T12:13:35.650Z,84.60
2023-04-18T12:17:39.838Z,83.20
2023-04-18T12:21:56.652Z,81.10
2023-04-18T12:26:03.681Z,80.30
2023-04-18T12:30:07.664Z,81.30
2023-04-18T12:34:11.908Z,82.30
2023-04-18T12:38:15.006Z,82.80
2023-04-18T12:42:17.763Z,82.40
2023-04-18T12:46:20.728Z,83.00
2023-04-18T12:50:26.204Z,83.40
2023-04-18T12:54:28.935Z,83.80
2023-04-18T12:58:31.958Z,82.40
2023-04-18T13:02:37.220Z,81.90
2023-04-18T13:06:41.613Z,81.80
2023-04-18T13:10:44.478Z,82.00
2023-04-18T13:14:47.448Z,81.80
2023-04-18T13:18:50.179Z,82.10
2023-04-18T13:22:54.265Z,82.10
2023-04-18T13:26:57.030Z,81.10
2023-04-18T13:30:59.868Z,81.20
2023-04-18T13:35:03.537Z,80.50
2023-04-18T13:39:07.786Z,79.50
2023-04-18T13:43:11.010Z,79.50
2023-04-18T13:47:14.280Z,79.60
2023-04-18T13:51:17.180Z,79.00
2023-04-18T13:55:21.351Z,78.20
2023-04-18T13:59:24.131Z,78.70
2023-04-18T14:03:27.234Z,79.10
2023-04-18T14:07:30.089Z,79.10
2023-04-18T14:11:34.857Z,78.40
2023-04-18T14:15:37.637Z,78.50
2023-04-18T14:19:40.448Z,78.20
2023-04-18T14:23:43.200Z,76.20
2023-04-18T14:27:48.674Z,76.30
2023-04-18T14:31:51.688Z,75.60
2023-04-18T14:35:54.463Z,75.50
2023-04-18T14:39:57.254Z,73.40
2023-04-18T14:44:01.521Z,72.60
2023-04-18T14:48:04.478Z,73.90
2023-04-18T14:52:07.535Z,75.20
2023-04-18T14:56:10.319Z,73.70
2023-04-18T15:00:15.584Z,74.40
2023-04-18T15:04:18.545Z,73.60
2023-04-18T15:08:22.041Z,72.50
2023-04-18T15:12:25.145Z,71.80
2023-04-18T15:16:29.251Z,72.30
2023-04-18T15:20:34.177Z,70.40
2023-04-18T15:24:37.256Z,70.20
2023-04-18T15:28:40.049Z,71.00
2023-04-18T15:32:44.281Z,70.10
2023-04-18T15:36:50.854Z,71.30
2023-04-18T15:40:54.337Z,71.90
2023-04-18T15:44:57.347Z,73.20
2023-04-18T15:49:02.112Z,74.20
2023-04-18T15:53:05.786Z,73.50
2023-04-18T15:57:08.622Z,72.40
2023-04-18T16:01:15.859Z,72.10
2023-04-18T16:05:20.189Z,70.80
2023-04-18T16:09:22.897Z,70.10
2023-04-18T16:13:25.836Z,69.00
2023-04-18T16:17:28.770Z,69.00
2023-04-18T16:21:33.172Z,69.40
2023-04-18T16:25:37.216Z,68.70
2023-04-18T16:29:40.429Z,69.50
2023-04-18T16:33:44.845Z,71.00
2023-04-18T16:37:49.140Z,70.60
2023-04-18T16:41:53.218Z,70.50
2023-04-18T16:45:57.590Z,70.50
2023-04-18T16:50:00.763Z,70.10
2023-04-18T16:54:05.699Z,70.90
2023-04-18T16:58:08.585Z,72.60
2023-04-18T17:02:11.911Z,73.80
2023-04-18T17:06:17.011Z,73.60
2023-04-18T17:10:21.661Z,74.90
2023-04-18T17:14:24.449Z,76.30
2023-04-18T17:18:27.940Z,77.50
2023-04-18T17:22:30.774Z,78.50
2023-04-18T17:26:35.643Z,79.70
2023-04-18T17:30:43.706Z,80.30
2023-04-18T17:34:47.205Z,80.90
2023-04-18T17:38:49.984Z,81.30
2023-04-18T17:42:57.746Z,81.90
2023-04-18T17:47:01.888Z,82.40
2023-04-18T17:51:05.256Z,82.80
2023-04-18T17:55:08.903Z,83.70
2023-04-18T17:59:13.251Z,84.20
2023-04-18T18:03:16.461Z,85.40
2023-04-18T18:07:19.869Z,85.80
2023-04-18T18:11:24.778Z,86.70
2023-04-18T18:15:34.353Z,87.10
2023-04-18T18:19:39.672Z,87.90
2023-04-18T18:23:43.038Z,88.60
2023-04-18T18:27:46.011Z,89.00
2023-04-18T18:31:50.482Z,89.50
2023-04-18T18:35:56.685Z,89.60
2023-04-18T18:40:14.291Z,89.70
2023-04-18T18:44:17.916Z,90.30
2023-04-18T18:48:25.933Z,90.40
2023-04-18T18:52:32.505Z,90.60
2023-04-18T18:56:42.766Z,90.70
2023-04-18T19:00:47.972Z,90.80
2023-04-18T19:05:09.343Z,90.90
2023-04-18T19:09:41.638Z,91.10
2023-04-18T19:13:52.698Z,91.30
2023-04-18T19:18:06.601Z,91.50
2023-04-18T19:22:40.787Z,91.70
2023-04-18T19:27:18.062Z,91.90
2023-04-18T19:36:14.194Z,92.20
2023-04-18T19:40:39.009Z,92.30
2023-04-18T19:44:54.785Z,92.50
2023-04-18T19:59:49.906Z,93.00
2023-04-18T20:04:29.892Z,93.30
2023-04-18T20:08:47.815Z,93.60
2023-04-18T20:17:26.917Z,93.90
2023-04-18T20:22:03.869Z,93.90
2023-04-18T20:26:56.996Z,94.20
2023-04-18T20:42:47.287Z,94.60
2023-04-18T21:16:06.154Z,95.40
2023-04-18T21:22:29.436Z,95.50
2023-04-18T21:32:16.482Z,95.90
2023-04-18T21:37:25.841Z,96.00
2023-04-18T21:46:46.913Z,96.10
2023-04-18T21:51:35.309Z,96.00
2023-04-18T21:55:53.887Z,96.20
2023-04-18T22:04:53.766Z,96.00
2023-04-18T22:08:58.303Z,95.90
2023-04-18T22:13:07.363Z,95.70
2023-04-18T22:17:31.468Z,95.80
2023-04-18T22:21:35.754Z,95.60
2023-04-18T22:25:44.974Z,95.40
2023-04-18T22:30:01.131Z,95.30
2023-04-18T22:34:04.792Z,95.10
2023-04-18T22:38:16.652Z,94.60
2023-04-18T22:42:36.665Z,94.60
2023-04-18T22:46:43.656Z,94.40
2023-04-18T22:50:58.078Z,94.10
2023-04-18T22:55:11.072Z,93.80
2023-04-18T22:59:17.720Z,93.60
2023-04-18T23:03:20.684Z,93.40
2023-04-18T23:07:25.218Z,93.30
2023-04-18T23:11:28.115Z,93.30
2023-04-18T23:15:32.273Z,93.30
2023-04-18T23:19:38.481Z,93.40
2023-04-18T23:25:16.522Z,93.30
2023-04-18T23:29:37.366Z,93.20
2023-04-18T23:33:50.593Z,92.90
2023-04-18T23:37:57.176Z,92.60
2023-04-18T23:42:04.230Z,92.30
2023-04-18T23:46:11.740Z,92.30
2023-04-18T23:50:21.100Z,92.20
2023-04-18T23:54:26.954Z,92.10
2023-04-18T23:58:33.855Z,92.20
